sensor_id;sensor_type;location;lat;lon;timestamp;P1;durP1;ratioP1;P2;durP2;ratioP2
12334;SDS011;6233;51.560;9.986;2023-05-14T00:00:48;8.03;;;6.43;;
12334;SDS011;6233;51.560;9.986;2023-05-14T00:03:50;8.67;;;6.20;;
12334;SDS011;6233;51.560;9.986;2023-05-14T00:06:53;7.13;;;6.53;;
12334;SDS011;6233;51.560;9.986;2023-05-14T00:09:55;7.17;;;6.47;;
12334;SDS011;6233;51.560;9.986;2023-05-14T00:12:58;6.77;;;6.10;;
12334;SDS011;6233;51.560;9.986;2023-05-14T00:16:00;7.63;;;6.83;;
12334;SDS011;6233;51.560;9.986;2023-05-14T00:19:02;7.83;;;6.30;;
12334;SDS011;6233;51.560;9.986;2023-05-14T00:22:04;7.07;;;6.37;;
12334;SDS011;6233;51.560;9.986;2023-05-14T00:25:06;7.23;;;6.63;;
12334;SDS011;6233;51.560;9.986;2023-05-14T00:28:09;7.80;;;6.80;;
12334;SDS011;6233;51.560;9.986;2023-05-14T00:31:11;7.07;;;6.47;;
12334;SDS011;6233;51.560;9.986;2023-05-14T00:34:13;7.50;;;6.70;;
12334;SDS011;6233;51.560;9.986;2023-05-14T00:37:15;7.47;;;6.77;;
12334;SDS011;6233;51.560;9.986;2023-05-14T00:40:17;7.83;;;7.13;;
12334;SDS011;6233;51.560;9.986;2023-05-14T00:43:20;7.60;;;6.80;;
12334;SDS011;6233;51.560;9.986;2023-05-14T00:46:22;7.27;;;6.47;;
12334;SDS011;6233;51.560;9.986;2023-05-14T00:49:25;7.20;;;6.53;;
12334;SDS011;6233;51.560;9.986;2023-05-14T00:52:27;7.73;;;7.03;;
12334;SDS011;6233;51.560;9.986;2023-05-14T00:55:29;7.90;;;7.10;;
12334;SDS011;6233;51.560;9.986;2023-05-14T00:58:31;7.43;;;6.73;;
12334;SDS011;6233;51.560;9.986;2023-05-14T01:01:33;7.93;;;7.13;;
12334;SDS011;6233;51.560;9.986;2023-05-14T01:04:36;6.53;;;5.93;;
12334;SDS011;6233;51.560;9.986;2023-05-14T01:07:52;7.47;;;6.73;;
12334;SDS011;6233;51.560;9.986;2023-05-14T01:10:58;9.07;;;7.50;;
12334;SDS011;6233;51.560;9.986;2023-05-14T01:17:25;7.10;;;6.50;;
12334;SDS011;6233;51.560;9.986;2023-05-14T01:20:29;7.40;;;6.47;;
12334;SDS011;6233;51.560;9.986;2023-05-14T01:23:31;6.40;;;5.80;;
12334;SDS011;6233;51.560;9.986;2023-05-14T01:26:34;7.17;;;6.10;;
12334;SDS011;6233;51.560;9.986;2023-05-14T01:29:37;7.67;;;6.97;;
12334;SDS011;6233;51.560;9.986;2023-05-14T01:32:41;6.90;;;6.30;;
12334;SDS011;6233;51.560;9.986;2023-05-14T01:35:45;7.30;;;6.60;;
12334;SDS011;6233;51.560;9.986;2023-05-14T01:38:48;7.70;;;6.90;;
12334;SDS011;6233;51.560;9.986;2023-05-14T01:41:51;7.97;;;7.17;;
12334;SDS011;6233;51.560;9.986;2023-05-14T01:44:54;7.40;;;6.70;;
12334;SDS011;6233;51.560;9.986;2023-05-14T01:47:56;6.53;;;5.93;;
12334;SDS011;6233;51.560;9.986;2023-05-14T01:50:58;10.03;;;8.90;;
12334;SDS011;6233;51.560;9.986;2023-05-14T01:54:02;6.87;;;6.17;;
12334;SDS011;6233;51.560;9.986;2023-05-14T01:57:04;7.40;;;6.63;;
12334;SDS011;6233;51.560;9.986;2023-05-14T02:00:06;6.97;;;6.30;;
12334;SDS011;6233;51.560;9.986;2023-05-14T02:03:09;6.93;;;6.37;;
12334;SDS011;6233;51.560;9.986;2023-05-14T02:06:11;9.57;;;8.67;;
12334;SDS011;6233;51.560;9.986;2023-05-14T02:09:13;8.93;;;7.40;;
12334;SDS011;6233;51.560;9.986;2023-05-14T02:12:16;8.47;;;7.60;;
12334;SDS011;6233;51.560;9.986;2023-05-14T02:15:18;7.20;;;5.97;;
12334;SDS011;6233;51.560;9.986;2023-05-14T02:18:20;7.60;;;6.90;;
12334;SDS011;6233;51.560;9.986;2023-05-14T02:21:22;7.27;;;6.60;;
12334;SDS011;6233;51.560;9.986;2023-05-14T02:24:24;9.60;;;8.60;;
12334;SDS011;6233;51.560;9.986;2023-05-14T02:27:27;9.23;;;8.33;;
12334;SDS011;6233;51.560;9.986;2023-05-14T02:30:29;9.00;;;8.10;;
12334;SDS011;6233;51.560;9.986;2023-05-14T02:33:31;7.50;;;6.73;;
12334;SDS011;6233;51.560;9.986;2023-05-14T02:36:34;7.83;;;7.13;;
12334;SDS011;6233;51.560;9.986;2023-05-14T02:39:36;8.80;;;7.47;;
12334;SDS011;6233;51.560;9.986;2023-05-14T02:42:38;8.10;;;7.30;;
12334;SDS011;6233;51.560;9.986;2023-05-14T02:45:40;8.23;;;7.40;;
12334;SDS011;6233;51.560;9.986;2023-05-14T02:48:43;7.73;;;7.03;;
12334;SDS011;6233;51.560;9.986;2023-05-14T02:51:45;7.90;;;7.20;;
12334;SDS011;6233;51.560;9.986;2023-05-14T02:54:47;8.53;;;7.40;;
12334;SDS011;6233;51.560;9.986;2023-05-14T02:57:49;8.23;;;7.43;;
12334;SDS011;6233;51.560;9.986;2023-05-14T03:00:53;18.87;;;15.47;;
12334;SDS011;6233;51.560;9.986;2023-05-14T03:03:55;12.03;;;10.73;;
12334;SDS011;6233;51.560;9.986;2023-05-14T03:06:57;8.83;;;7.93;;
12334;SDS011;6233;51.560;9.986;2023-05-14T03:10:00;7.63;;;7.00;;
12334;SDS011;6233;51.560;9.986;2023-05-14T03:13:02;8.20;;;7.40;;
12334;SDS011;6233;51.560;9.986;2023-05-14T03:16:04;7.50;;;6.80;;
12334;SDS011;6233;51.560;9.986;2023-05-14T03:19:07;7.30;;;6.60;;
12334;SDS011;6233;51.560;9.986;2023-05-14T03:22:10;7.80;;;7.00;;
12334;SDS011;6233;51.560;9.986;2023-05-14T03:25:12;7.50;;;6.70;;
12334;SDS011;6233;51.560;9.986;2023-05-14T03:28:14;7.23;;;6.53;;
12334;SDS011;6233;51.560;9.986;2023-05-14T03:31:16;7.23;;;6.57;;
12334;SDS011;6233;51.560;9.986;2023-05-14T03:34:18;7.40;;;6.40;;
12334;SDS011;6233;51.560;9.986;2023-05-14T03:37:21;6.03;;;5.53;;
12334;SDS011;6233;51.560;9.986;2023-05-14T03:40:23;7.73;;;6.60;;
12334;SDS011;6233;51.560;9.986;2023-05-14T03:43:25;6.53;;;5.97;;
12334;SDS011;6233;51.560;9.986;2023-05-14T03:46:27;7.27;;;6.40;;
12334;SDS011;6233;51.560;9.986;2023-05-14T03:49:30;6.67;;;6.17;;
12334;SDS011;6233;51.560;9.986;2023-05-14T03:52:32;9.00;;;6.67;;
12334;SDS011;6233;51.560;9.986;2023-05-14T03:55:34;6.53;;;5.90;;
12334;SDS011;6233;51.560;9.986;2023-05-14T03:58:36;6.47;;;5.87;;
12334;SDS011;6233;51.560;9.986;2023-05-14T04:01:38;6.47;;;5.87;;
12334;SDS011;6233;51.560;9.986;2023-05-14T04:04:41;6.67;;;5.97;;
12334;SDS011;6233;51.560;9.986;2023-05-14T04:07:43;7.10;;;6.40;;
12334;SDS011;6233;51.560;9.986;2023-05-14T04:10:46;6.23;;;5.63;;
12334;SDS011;6233;51.560;9.986;2023-05-14T04:13:48;6.90;;;6.20;;
12334;SDS011;6233;51.560;9.986;2023-05-14T04:16:50;6.53;;;5.77;;
12334;SDS011;6233;51.560;9.986;2023-05-14T04:19:52;7.03;;;6.33;;
12334;SDS011;6233;51.560;9.986;2023-05-14T04:22:54;6.57;;;5.83;;
12334;SDS011;6233;51.560;9.986;2023-05-14T04:25:57;5.90;;;5.40;;
12334;SDS011;6233;51.560;9.986;2023-05-14T04:28:59;6.13;;;5.57;;
12334;SDS011;6233;51.560;9.986;2023-05-14T04:32:03;6.40;;;5.80;;
12334;SDS011;6233;51.560;9.986;2023-05-14T04:35:06;6.27;;;5.67;;
12334;SDS011;6233;51.560;9.986;2023-05-14T04:38:10;6.17;;;5.57;;
12334;SDS011;6233;51.560;9.986;2023-05-14T04:41:14;6.53;;;5.93;;
12334;SDS011;6233;51.560;9.986;2023-05-14T04:44:16;5.83;;;5.33;;
12334;SDS011;6233;51.560;9.986;2023-05-14T04:47:18;6.20;;;5.60;;
12334;SDS011;6233;51.560;9.986;2023-05-14T04:50:21;6.93;;;5.80;;
12334;SDS011;6233;51.560;9.986;2023-05-14T04:53:23;6.50;;;5.90;;
12334;SDS011;6233;51.560;9.986;2023-05-14T04:56:25;5.90;;;5.40;;
12334;SDS011;6233;51.560;9.986;2023-05-14T04:59:28;6.10;;;5.57;;
12334;SDS011;6233;51.560;9.986;2023-05-14T05:02:30;6.73;;;5.87;;
12334;SDS011;6233;51.560;9.986;2023-05-14T05:05:34;5.63;;;5.17;;
12334;SDS011;6233;51.560;9.986;2023-05-14T05:08:36;6.10;;;5.50;;
12334;SDS011;6233;51.560;9.986;2023-05-14T05:11:39;6.53;;;5.93;;
12334;SDS011;6233;51.560;9.986;2023-05-14T05:14:41;5.57;;;5.07;;
12334;SDS011;6233;51.560;9.986;2023-05-14T05:17:43;5.80;;;5.30;;
12334;SDS011;6233;51.560;9.986;2023-05-14T05:20:45;5.53;;;5.03;;
12334;SDS011;6233;51.560;9.986;2023-05-14T05:23:47;6.50;;;5.37;;
12334;SDS011;6233;51.560;9.986;2023-05-14T05:26:50;5.27;;;4.87;;
12334;SDS011;6233;51.560;9.986;2023-05-14T05:29:54;5.77;;;5.23;;
12334;SDS011;6233;51.560;9.986;2023-05-14T05:32:56;6.40;;;5.80;;
12334;SDS011;6233;51.560;9.986;2023-05-14T05:35:58;6.27;;;5.67;;
12334;SDS011;6233;51.560;9.986;2023-05-14T05:39:00;6.00;;;5.50;;
12334;SDS011;6233;51.560;9.986;2023-05-14T05:42:04;5.83;;;5.10;;
12334;SDS011;6233;51.560;9.986;2023-05-14T05:45:06;5.83;;;5.33;;
12334;SDS011;6233;51.560;9.986;2023-05-14T05:48:09;5.27;;;4.77;;
12334;SDS011;6233;51.560;9.986;2023-05-14T05:51:11;5.90;;;5.40;;
12334;SDS011;6233;51.560;9.986;2023-05-14T05:54:13;5.83;;;5.13;;
12334;SDS011;6233;51.560;9.986;2023-05-14T05:57:15;6.23;;;5.63;;
12334;SDS011;6233;51.560;9.986;2023-05-14T06:00:17;6.07;;;5.57;;
12334;SDS011;6233;51.560;9.986;2023-05-14T06:03:20;6.13;;;5.47;;
12334;SDS011;6233;51.560;9.986;2023-05-14T06:06:22;6.17;;;5.57;;
12334;SDS011;6233;51.560;9.986;2023-05-14T06:09:24;5.60;;;5.00;;
12334;SDS011;6233;51.560;9.986;2023-05-14T06:12:26;5.30;;;4.90;;
12334;SDS011;6233;51.560;9.986;2023-05-14T06:15:28;5.47;;;5.07;;
12334;SDS011;6233;51.560;9.986;2023-05-14T06:18:30;6.20;;;5.70;;
12334;SDS011;6233;51.560;9.986;2023-05-14T06:25:03;5.93;;;5.20;;
12334;SDS011;6233;51.560;9.986;2023-05-14T06:28:05;5.37;;;4.87;;
12334;SDS011;6233;51.560;9.986;2023-05-14T06:31:07;5.27;;;4.87;;
12334;SDS011;6233;51.560;9.986;2023-05-14T06:34:12;5.40;;;4.90;;
12334;SDS011;6233;51.560;9.986;2023-05-14T06:37:14;5.50;;;5.00;;
12334;SDS011;6233;51.560;9.986;2023-05-14T06:40:17;6.33;;;5.10;;
12334;SDS011;6233;51.560;9.986;2023-05-14T06:43:19;5.90;;;5.40;;
12334;SDS011;6233;51.560;9.986;2023-05-14T06:46:21;6.50;;;5.40;;
12334;SDS011;6233;51.560;9.986;2023-05-14T06:49:23;6.67;;;6.07;;
12334;SDS011;6233;51.560;9.986;2023-05-14T06:52:27;7.70;;;5.87;;
12334;SDS011;6233;51.560;9.986;2023-05-14T06:55:29;5.90;;;5.37;;
12334;SDS011;6233;51.560;9.986;2023-05-14T06:58:32;6.47;;;5.93;;
12334;SDS011;6233;51.560;9.986;2023-05-14T07:01:34;5.67;;;5.17;;
12334;SDS011;6233;51.560;9.986;2023-05-14T07:04:36;6.80;;;5.77;;
12334;SDS011;6233;51.560;9.986;2023-05-14T07:07:38;7.20;;;6.50;;
12334;SDS011;6233;51.560;9.986;2023-05-14T07:10:40;7.07;;;6.47;;
12334;SDS011;6233;51.560;9.986;2023-05-14T07:13:51;7.60;;;6.90;;
12334;SDS011;6233;51.560;9.986;2023-05-14T07:16:53;8.33;;;7.53;;
12334;SDS011;6233;51.560;9.986;2023-05-14T07:19:55;7.20;;;6.50;;
12334;SDS011;6233;51.560;9.986;2023-05-14T07:22:57;7.40;;;6.80;;
12334;SDS011;6233;51.560;9.986;2023-05-14T07:25:59;7.63;;;6.93;;
12334;SDS011;6233;51.560;9.986;2023-05-14T07:29:01;6.77;;;6.10;;
12334;SDS011;6233;51.560;9.986;2023-05-14T07:32:03;7.43;;;6.73;;
12334;SDS011;6233;51.560;9.986;2023-05-14T07:35:05;7.57;;;6.80;;
12334;SDS011;6233;51.560;9.986;2023-05-14T07:38:08;7.60;;;7.00;;
12334;SDS011;6233;51.560;9.986;2023-05-14T07:41:10;7.80;;;7.10;;
12334;SDS011;6233;51.560;9.986;2023-05-14T07:44:12;8.27;;;7.47;;
12334;SDS011;6233;51.560;9.986;2023-05-14T07:47:14;7.47;;;6.87;;
12334;SDS011;6233;51.560;9.986;2023-05-14T07:50:17;7.50;;;6.70;;
12334;SDS011;6233;51.560;9.986;2023-05-14T07:53:19;7.43;;;6.80;;
12334;SDS011;6233;51.560;9.986;2023-05-14T07:56:22;7.60;;;6.90;;
12334;SDS011;6233;51.560;9.986;2023-05-14T07:59:24;8.43;;;6.77;;
12334;SDS011;6233;51.560;9.986;2023-05-14T08:02:26;8.30;;;7.27;;
12334;SDS011;6233;51.560;9.986;2023-05-14T08:05:28;7.57;;;6.87;;
12334;SDS011;6233;51.560;9.986;2023-05-14T08:08:32;7.43;;;6.73;;
12334;SDS011;6233;51.560;9.986;2023-05-14T08:11:34;6.90;;;6.20;;
12334;SDS011;6233;51.560;9.986;2023-05-14T08:18:34;8.97;;;7.00;;
12334;SDS011;6233;51.560;9.986;2023-05-14T08:21:36;7.73;;;6.83;;
12334;SDS011;6233;51.560;9.986;2023-05-14T08:24:38;7.23;;;6.53;;
12334;SDS011;6233;51.560;9.986;2023-05-14T08:27:42;8.20;;;6.30;;
12334;SDS011;6233;51.560;9.986;2023-05-14T08:30:44;7.43;;;6.70;;
12334;SDS011;6233;51.560;9.986;2023-05-14T08:33:47;6.80;;;6.10;;
12334;SDS011;6233;51.560;9.986;2023-05-14T08:36:49;6.50;;;5.90;;
12334;SDS011;6233;51.560;9.986;2023-05-14T08:39:51;6.20;;;5.60;;
12334;SDS011;6233;51.560;9.986;2023-05-14T08:42:54;5.87;;;5.37;;
12334;SDS011;6233;51.560;9.986;2023-05-14T08:45:58;7.00;;;6.20;;
12334;SDS011;6233;51.560;9.986;2023-05-14T08:49:07;6.97;;;5.80;;
12334;SDS011;6233;51.560;9.986;2023-05-14T08:52:12;7.40;;;5.50;;
12334;SDS011;6233;51.560;9.986;2023-05-14T08:55:14;5.63;;;5.23;;
12334;SDS011;6233;51.560;9.986;2023-05-14T08:58:16;5.50;;;5.10;;
12334;SDS011;6233;51.560;9.986;2023-05-14T09:01:19;6.67;;;4.97;;
12334;SDS011;6233;51.560;9.986;2023-05-14T09:04:22;5.80;;;5.30;;
12334;SDS011;6233;51.560;9.986;2023-05-14T09:07:24;5.20;;;4.70;;
12334;SDS011;6233;51.560;9.986;2023-05-14T09:10:27;5.33;;;4.83;;
12334;SDS011;6233;51.560;9.986;2023-05-14T09:13:29;7.93;;;5.17;;
12334;SDS011;6233;51.560;9.986;2023-05-14T09:16:31;5.77;;;4.77;;
12334;SDS011;6233;51.560;9.986;2023-05-14T09:19:33;5.90;;;5.40;;
12334;SDS011;6233;51.560;9.986;2023-05-14T09:22:35;4.57;;;4.27;;
12334;SDS011;6233;51.560;9.986;2023-05-14T09:25:39;4.90;;;4.40;;
12334;SDS011;6233;51.560;9.986;2023-05-14T09:28:41;4.70;;;4.27;;
12334;SDS011;6233;51.560;9.986;2023-05-14T09:31:44;6.13;;;4.60;;
12334;SDS011;6233;51.560;9.986;2023-05-14T09:34:46;5.90;;;4.27;;
12334;SDS011;6233;51.560;9.986;2023-05-14T09:37:49;4.53;;;4.13;;
12334;SDS011;6233;51.560;9.986;2023-05-14T09:40:51;4.60;;;4.20;;
12334;SDS011;6233;51.560;9.986;2023-05-14T09:43:53;5.20;;;4.70;;
12334;SDS011;6233;51.560;9.986;2023-05-14T09:46:57;4.50;;;4.10;;
12334;SDS011;6233;51.560;9.986;2023-05-14T09:49:59;4.50;;;4.20;;
12334;SDS011;6233;51.560;9.986;2023-05-14T09:53:01;4.50;;;4.20;;
12334;SDS011;6233;51.560;9.986;2023-05-14T09:56:03;4.00;;;3.70;;
12334;SDS011;6233;51.560;9.986;2023-05-14T09:59:06;4.47;;;4.17;;
12334;SDS011;6233;51.560;9.986;2023-05-14T10:02:11;4.43;;;4.03;;
12334;SDS011;6233;51.560;9.986;2023-05-14T10:05:16;4.80;;;4.30;;
12334;SDS011;6233;51.560;9.986;2023-05-14T10:08:26;4.60;;;4.17;;
12334;SDS011;6233;51.560;9.986;2023-05-14T10:11:36;4.87;;;4.10;;
12334;SDS011;6233;51.560;9.986;2023-05-14T10:14:39;4.23;;;3.70;;
12334;SDS011;6233;51.560;9.986;2023-05-14T10:17:42;4.23;;;3.83;;
12334;SDS011;6233;51.560;9.986;2023-05-14T10:20:56;4.50;;;4.10;;
12334;SDS011;6233;51.560;9.986;2023-05-14T10:24:04;4.07;;;3.67;;
12334;SDS011;6233;51.560;9.986;2023-05-14T10:27:07;4.63;;;3.87;;
12334;SDS011;6233;51.560;9.986;2023-05-14T10:33:23;4.57;;;4.17;;
12334;SDS011;6233;51.560;9.986;2023-05-14T10:36:25;4.70;;;4.30;;
12334;SDS011;6233;51.560;9.986;2023-05-14T10:39:40;4.83;;;4.30;;
12334;SDS011;6233;51.560;9.986;2023-05-14T10:42:42;4.40;;;4.00;;
12334;SDS011;6233;51.560;9.986;2023-05-14T10:45:44;4.37;;;3.97;;
12334;SDS011;6233;51.560;9.986;2023-05-14T10:48:47;4.20;;;3.90;;
12334;SDS011;6233;51.560;9.986;2023-05-14T10:51:51;4.57;;;3.97;;
12334;SDS011;6233;51.560;9.986;2023-05-14T10:54:57;4.00;;;3.70;;
12334;SDS011;6233;51.560;9.986;2023-05-14T10:58:03;5.13;;;4.67;;
12334;SDS011;6233;51.560;9.986;2023-05-14T11:01:06;5.10;;;4.70;;
12334;SDS011;6233;51.560;9.986;2023-05-14T11:04:08;5.20;;;4.80;;
12334;SDS011;6233;51.560;9.986;2023-05-14T11:07:23;5.90;;;4.90;;
12334;SDS011;6233;51.560;9.986;2023-05-14T11:10:25;4.90;;;4.50;;
12334;SDS011;6233;51.560;9.986;2023-05-14T11:13:30;5.30;;;4.90;;
12334;SDS011;6233;51.560;9.986;2023-05-14T11:16:34;4.67;;;4.27;;
12334;SDS011;6233;51.560;9.986;2023-05-14T11:19:37;5.43;;;4.90;;
12334;SDS011;6233;51.560;9.986;2023-05-14T11:22:40;5.43;;;4.93;;
12334;SDS011;6233;51.560;9.986;2023-05-14T11:25:43;4.93;;;4.53;;
12334;SDS011;6233;51.560;9.986;2023-05-14T11:28:45;5.10;;;4.63;;
12334;SDS011;6233;51.560;9.986;2023-05-14T11:31:48;5.33;;;4.83;;
12334;SDS011;6233;51.560;9.986;2023-05-14T11:34:51;6.20;;;5.50;;
12334;SDS011;6233;51.560;9.986;2023-05-14T11:37:53;6.43;;;5.87;;
12334;SDS011;6233;51.560;9.986;2023-05-14T11:40:56;5.27;;;4.80;;
12334;SDS011;6233;51.560;9.986;2023-05-14T11:43:58;5.83;;;5.23;;
12334;SDS011;6233;51.560;9.986;2023-05-14T11:47:00;6.77;;;5.67;;
12334;SDS011;6233;51.560;9.986;2023-05-14T11:50:05;6.43;;;5.83;;
12334;SDS011;6233;51.560;9.986;2023-05-14T11:53:09;5.73;;;5.23;;
12334;SDS011;6233;51.560;9.986;2023-05-14T11:56:11;5.97;;;5.37;;
12334;SDS011;6233;51.560;9.986;2023-05-14T11:59:14;6.43;;;5.47;;
12334;SDS011;6233;51.560;9.986;2023-05-14T12:02:18;5.83;;;5.33;;
12334;SDS011;6233;51.560;9.986;2023-05-14T12:05:20;5.13;;;4.67;;
12334;SDS011;6233;51.560;9.986;2023-05-14T12:08:29;6.00;;;5.50;;
12334;SDS011;6233;51.560;9.986;2023-05-14T12:11:34;5.13;;;4.63;;
12334;SDS011;6233;51.560;9.986;2023-05-14T12:14:40;5.43;;;4.93;;
12334;SDS011;6233;51.560;9.986;2023-05-14T12:17:48;6.47;;;5.03;;
12334;SDS011;6233;51.560;9.986;2023-05-14T12:20:51;4.83;;;4.40;;
12334;SDS011;6233;51.560;9.986;2023-05-14T12:23:59;5.67;;;4.50;;
12334;SDS011;6233;51.560;9.986;2023-05-14T12:27:01;4.97;;;4.50;;
12334;SDS011;6233;51.560;9.986;2023-05-14T12:30:04;4.27;;;3.93;;
12334;SDS011;6233;51.560;9.986;2023-05-14T12:33:21;4.50;;;4.10;;
12334;SDS011;6233;51.560;9.986;2023-05-14T12:39:51;5.13;;;3.90;;
12334;SDS011;6233;51.560;9.986;2023-05-14T12:42:53;4.83;;;3.33;;
12334;SDS011;6233;51.560;9.986;2023-05-14T12:45:57;3.23;;;2.93;;
12334;SDS011;6233;51.560;9.986;2023-05-14T12:48:59;2.50;;;2.30;;
12334;SDS011;6233;51.560;9.986;2023-05-14T12:52:01;2.40;;;2.20;;
12334;SDS011;6233;51.560;9.986;2023-05-14T12:55:23;1.90;;;1.80;;
12334;SDS011;6233;51.560;9.986;2023-05-14T12:58:25;2.17;;;2.07;;
12334;SDS011;6233;51.560;9.986;2023-05-14T13:01:28;2.07;;;1.97;;
12334;SDS011;6233;51.560;9.986;2023-05-14T13:04:30;2.30;;;2.10;;
12334;SDS011;6233;51.560;9.986;2023-05-14T13:07:32;2.20;;;2.00;;
12334;SDS011;6233;51.560;9.986;2023-05-14T13:10:34;3.10;;;1.90;;
12334;SDS011;6233;51.560;9.986;2023-05-14T13:13:36;2.30;;;1.93;;
12334;SDS011;6233;51.560;9.986;2023-05-14T13:16:38;2.77;;;2.23;;
12334;SDS011;6233;51.560;9.986;2023-05-14T13:19:41;2.53;;;2.33;;
12334;SDS011;6233;51.560;9.986;2023-05-14T13:22:43;2.50;;;2.30;;
12334;SDS011;6233;51.560;9.986;2023-05-14T13:25:45;2.90;;;2.67;;
12334;SDS011;6233;51.560;9.986;2023-05-14T13:28:50;3.10;;;2.90;;
12334;SDS011;6233;51.560;9.986;2023-05-14T13:31:52;3.07;;;2.70;;
12334;SDS011;6233;51.560;9.986;2023-05-14T13:34:54;2.93;;;2.73;;
12334;SDS011;6233;51.560;9.986;2023-05-14T13:37:56;3.40;;;3.10;;
12334;SDS011;6233;51.560;9.986;2023-05-14T13:40:58;4.63;;;2.93;;
12334;SDS011;6233;51.560;9.986;2023-05-14T13:44:03;3.57;;;3.27;;
12334;SDS011;6233;51.560;9.986;2023-05-14T13:47:06;4.20;;;3.80;;
12334;SDS011;6233;51.560;9.986;2023-05-14T13:50:08;4.03;;;3.63;;
12334;SDS011;6233;51.560;9.986;2023-05-14T13:53:10;3.17;;;2.97;;
12334;SDS011;6233;51.560;9.986;2023-05-14T13:56:13;4.27;;;3.60;;
12334;SDS011;6233;51.560;9.986;2023-05-14T13:59:15;4.77;;;3.90;;
12334;SDS011;6233;51.560;9.986;2023-05-14T14:02:17;4.93;;;4.27;;
12334;SDS011;6233;51.560;9.986;2023-05-14T14:05:19;4.47;;;4.07;;
12334;SDS011;6233;51.560;9.986;2023-05-14T14:08:21;3.93;;;3.60;;
12334;SDS011;6233;51.560;9.986;2023-05-14T14:11:25;4.47;;;3.80;;
12334;SDS011;6233;51.560;9.986;2023-05-14T14:14:30;3.87;;;3.57;;
12334;SDS011;6233;51.560;9.986;2023-05-14T14:17:32;4.27;;;3.93;;
12334;SDS011;6233;51.560;9.986;2023-05-14T14:20:35;4.60;;;4.10;;
12334;SDS011;6233;51.560;9.986;2023-05-14T14:23:37;4.80;;;4.30;;
12334;SDS011;6233;51.560;9.986;2023-05-14T14:26:39;4.33;;;4.03;;
12334;SDS011;6233;51.560;9.986;2023-05-14T14:29:41;5.07;;;4.57;;
12334;SDS011;6233;51.560;9.986;2023-05-14T14:32:49;4.53;;;4.13;;
12334;SDS011;6233;51.560;9.986;2023-05-14T14:35:51;5.10;;;4.60;;
12334;SDS011;6233;51.560;9.986;2023-05-14T14:38:54;4.90;;;4.50;;
12334;SDS011;6233;51.560;9.986;2023-05-14T14:41:56;4.77;;;4.33;;
12334;SDS011;6233;51.560;9.986;2023-05-14T14:44:58;5.23;;;4.77;;
12334;SDS011;6233;51.560;9.986;2023-05-14T14:48:34;5.10;;;4.30;;
12334;SDS011;6233;51.560;9.986;2023-05-14T14:51:30;4.50;;;4.10;;
12334;SDS011;6233;51.560;9.986;2023-05-14T14:54:33;5.00;;;4.53;;
12334;SDS011;6233;51.560;9.986;2023-05-14T14:57:35;4.77;;;4.10;;
12334;SDS011;6233;51.560;9.986;2023-05-14T15:00:37;5.47;;;4.20;;
12334;SDS011;6233;51.560;9.986;2023-05-14T15:03:40;5.13;;;4.63;;
12334;SDS011;6233;51.560;9.986;2023-05-14T15:06:42;4.90;;;4.50;;
12334;SDS011;6233;51.560;9.986;2023-05-14T15:09:44;5.07;;;4.60;;
12334;SDS011;6233;51.560;9.986;2023-05-14T15:12:47;4.90;;;4.40;;
12334;SDS011;6233;51.560;9.986;2023-05-14T15:15:49;4.87;;;4.37;;
12334;SDS011;6233;51.560;9.986;2023-05-14T15:18:52;4.33;;;3.93;;
12334;SDS011;6233;51.560;9.986;2023-05-14T15:21:54;5.13;;;4.73;;
12334;SDS011;6233;51.560;9.986;2023-05-14T15:24:56;5.37;;;4.40;;
12334;SDS011;6233;51.560;9.986;2023-05-14T15:27:58;4.83;;;4.43;;
12334;SDS011;6233;51.560;9.986;2023-05-14T15:31:01;4.70;;;4.30;;
12334;SDS011;6233;51.560;9.986;2023-05-14T15:34:03;4.57;;;4.20;;
12334;SDS011;6233;51.560;9.986;2023-05-14T15:37:05;4.50;;;4.10;;
12334;SDS011;6233;51.560;9.986;2023-05-14T15:40:08;4.40;;;4.07;;
12334;SDS011;6233;51.560;9.986;2023-05-14T15:43:10;5.07;;;4.67;;
12334;SDS011;6233;51.560;9.986;2023-05-14T15:46:12;5.17;;;4.67;;
12334;SDS011;6233;51.560;9.986;2023-05-14T15:49:14;13.17;;;11.33;;
12334;SDS011;6233;51.560;9.986;2023-05-14T15:52:16;9.97;;;8.50;;
12334;SDS011;6233;51.560;9.986;2023-05-14T15:55:19;5.00;;;4.60;;
12334;SDS011;6233;51.560;9.986;2023-05-14T15:58:21;5.10;;;4.67;;
12334;SDS011;6233;51.560;9.986;2023-05-14T16:01:23;4.73;;;4.27;;
12334;SDS011;6233;51.560;9.986;2023-05-14T16:04:25;5.00;;;4.50;;
12334;SDS011;6233;51.560;9.986;2023-05-14T16:07:27;5.57;;;4.47;;
12334;SDS011;6233;51.560;9.986;2023-05-14T16:10:29;6.90;;;6.30;;
12334;SDS011;6233;51.560;9.986;2023-05-14T16:13:31;8.83;;;7.93;;
12334;SDS011;6233;51.560;9.986;2023-05-14T16:16:34;5.27;;;4.80;;
12334;SDS011;6233;51.560;9.986;2023-05-14T16:19:37;4.73;;;4.30;;
12334;SDS011;6233;51.560;9.986;2023-05-14T16:22:39;4.67;;;4.30;;
12334;SDS011;6233;51.560;9.986;2023-05-14T16:25:41;4.90;;;4.33;;
12334;SDS011;6233;51.560;9.986;2023-05-14T16:28:43;4.33;;;3.57;;
12334;SDS011;6233;51.560;9.986;2023-05-14T16:31:46;4.60;;;3.77;;
12334;SDS011;6233;51.560;9.986;2023-05-14T16:34:48;4.90;;;4.50;;
12334;SDS011;6233;51.560;9.986;2023-05-14T16:37:50;6.33;;;5.03;;
12334;SDS011;6233;51.560;9.986;2023-05-14T16:40:52;5.43;;;4.73;;
12334;SDS011;6233;51.560;9.986;2023-05-14T16:43:54;5.97;;;5.23;;
12334;SDS011;6233;51.560;9.986;2023-05-14T16:46:56;5.43;;;4.90;;
12334;SDS011;6233;51.560;9.986;2023-05-14T16:49:58;5.30;;;4.20;;
12334;SDS011;6233;51.560;9.986;2023-05-14T16:53:00;4.90;;;4.40;;
12334;SDS011;6233;51.560;9.986;2023-05-14T16:56:05;5.43;;;4.93;;
12334;SDS011;6233;51.560;9.986;2023-05-14T16:59:07;4.43;;;4.13;;
12334;SDS011;6233;51.560;9.986;2023-05-14T17:02:09;4.33;;;3.97;;
12334;SDS011;6233;51.560;9.986;2023-05-14T17:05:11;4.23;;;3.83;;
12334;SDS011;6233;51.560;9.986;2023-05-14T17:08:14;5.00;;;4.50;;
12334;SDS011;6233;51.560;9.986;2023-05-14T17:11:16;4.53;;;4.13;;
12334;SDS011;6233;51.560;9.986;2023-05-14T17:14:18;4.90;;;3.83;;
12334;SDS011;6233;51.560;9.986;2023-05-14T17:17:20;4.50;;;4.10;;
12334;SDS011;6233;51.560;9.986;2023-05-14T17:20:22;4.27;;;3.47;;
12334;SDS011;6233;51.560;9.986;2023-05-14T17:23:30;2.87;;;2.67;;
12334;SDS011;6233;51.560;9.986;2023-05-14T17:26:32;3.00;;;2.80;;
12334;SDS011;6233;51.560;9.986;2023-05-14T17:29:34;4.37;;;3.70;;
12334;SDS011;6233;51.560;9.986;2023-05-14T17:32:36;3.87;;;3.57;;
12334;SDS011;6233;51.560;9.986;2023-05-14T17:35:38;3.87;;;3.57;;
12334;SDS011;6233;51.560;9.986;2023-05-14T17:38:40;7.87;;;4.90;;
12334;SDS011;6233;51.560;9.986;2023-05-14T17:41:43;5.13;;;4.63;;
12334;SDS011;6233;51.560;9.986;2023-05-14T17:44:45;4.43;;;4.03;;
12334;SDS011;6233;51.560;9.986;2023-05-14T17:47:47;4.10;;;3.80;;
12334;SDS011;6233;51.560;9.986;2023-05-14T17:51:01;5.80;;;5.20;;
12334;SDS011;6233;51.560;9.986;2023-05-14T17:54:03;5.70;;;5.20;;
12334;SDS011;6233;51.560;9.986;2023-05-14T17:57:05;5.83;;;5.27;;
12334;SDS011;6233;51.560;9.986;2023-05-14T18:00:08;5.43;;;4.93;;
12334;SDS011;6233;51.560;9.986;2023-05-14T18:03:10;5.70;;;4.47;;
12334;SDS011;6233;51.560;9.986;2023-05-14T18:06:14;4.73;;;3.80;;
12334;SDS011;6233;51.560;9.986;2023-05-14T18:09:17;4.10;;;3.70;;
12334;SDS011;6233;51.560;9.986;2023-05-14T18:12:19;7.57;;;5.50;;
12334;SDS011;6233;51.560;9.986;2023-05-14T18:15:21;5.67;;;4.20;;
12334;SDS011;6233;51.560;9.986;2023-05-14T18:18:25;3.83;;;3.53;;
12334;SDS011;6233;51.560;9.986;2023-05-14T18:24:49;6.93;;;4.00;;
12334;SDS011;6233;51.560;9.986;2023-05-14T18:27:51;5.63;;;5.07;;
12334;SDS011;6233;51.560;9.986;2023-05-14T18:30:53;4.50;;;4.10;;
12334;SDS011;6233;51.560;9.986;2023-05-14T18:33:55;5.63;;;5.10;;
12334;SDS011;6233;51.560;9.986;2023-05-14T18:36:58;5.60;;;5.10;;
12334;SDS011;6233;51.560;9.986;2023-05-14T18:40:01;5.90;;;5.40;;
12334;SDS011;6233;51.560;9.986;2023-05-14T18:43:04;4.23;;;3.90;;
12334;SDS011;6233;51.560;9.986;2023-05-14T18:46:07;4.13;;;3.83;;
12334;SDS011;6233;51.560;9.986;2023-05-14T18:49:09;4.47;;;4.13;;
12334;SDS011;6233;51.560;9.986;2023-05-14T18:52:11;6.77;;;6.07;;
12334;SDS011;6233;51.560;9.986;2023-05-14T18:55:13;6.27;;;4.50;;
12334;SDS011;6233;51.560;9.986;2023-05-14T18:58:15;3.30;;;3.10;;